Soaring Guidance
Issued by NWS Reno, NV

Home | Current Version | Previous Version | Text Only | Print | Product List | Glossary On
Versions: 1 2 3 4 5 6 7 8 9
000
UXUS97 KREV 021450
SRGREV

SOARING FORECAST
NATIONAL WEATHER SERVICE - RENO NV
700 AM PST FRI DEC 2 2016

THIS SOARING FORECAST IS FOR THE EASTERN SIERRA AND WESTERN NEVADA
WITH SPECIFIC INDICES FOR THE GREATER RENO AREA.

THIS FORECAST IS PREPARED DAILY BY 700 AM AND IS NOT UPDATED.

FOR CURRENT FLIGHT CONDITIONS...FORECASTS...AND ADVISORIES...ACCESS
YOUR LOCAL BRIEFING OUTLET OR FLIGHT SERVICE STATION.

*******************************************************************
FORECASTED LOCAL INDICES FOR RENO:        TODAY     YESTERDAY
FORECASTED MAX TEMP AT RENO (DEG F).....     42          43
FORECASTED TRIGGER TEMPERATURE (DEG F)..     31          38
   EXCEEDED YESTERDAY BY 955 AM PST
FORECASTED MAXIMUM ALTITUDE (FT MSL)....  11000       10000
FORECASTED SOARING INDEX (FPM)..........    420         450
FORECASTED K-INDEX.........VALID 18Z....     -16         16
FORECASTED K-INDEX.........VALID 00Z....     -16         12
FORECASTED LIFTED INDEX....VALID 18Z....     14           7
FORECASTED LIFTED INDEX....VALID 00Z....     11           6

AFTERNOON WINDS ALOFT FORECAST
MSL (FT) WIND/TEMP
9000  0716/-06
10000 0325/-05
12000 0242/-05
14000 -2145/-08
16000 -3949/-12
18000 3659/-16
24000 3567/-27
30000 3696/-42
34000 8505/-51
39000 8500/-56

SLIDE MOUNTAIN DATA:
     DATE       TIME     TEMP  DEWPT   RH         WIND (MPH)
                        (F)   (F)           | DIR  SPEED GUST
2016-12-02    05:20       6     4     88    | 064   21   30
2016-12-02    05:00       6     4     88    | 072   19   27
2016-12-02    04:50       6     4     88    | 079   18   25
2016-12-02    04:30       6     4     88    | 068   19   26

RENO TAF FORECAST:
KRNO 021120Z 0212/0312 VRB03KT P6SM FEW050
     FM021900 08008KT P6SM SCT080
     FM030200 VRB03KT P6SM FEW080

CARSON CITY TAF FORECAST:
KCXP 021120Z 0212/0312 VRB03KT P6SM SCT050
     FM021700 07010G18KT P6SM SCT060
     FM030300 VRB04KT P6SM FEW060

OUTLOOK FOR THE RENO-CARSON CITY-MINDEN AREA:
.SATURDAY...PARTLY CLOUDY. HIGHS 46 TO 51. LIGHT WINDS.

SUNRISE AND SUNSET
DECEMBER  2 2016......SUNRISE   702 AM PST   SUNSET   436 PM PST
DECEMBER  3 2016......SUNRISE   703 AM PST   SUNSET   435 PM PST



USA.gov is the U.S. government's official web portal to all federal, state and local government web resources and services.